Aviation Digital Data Service (ADDS)

Output produced by METARs form (0530 UTC 19 March 2019)
found at http://www.aviationweather.gov/metar/data/
 
METAR text: SBFI 190500Z 04001KT 0250 R32/0600 R14/0800 FG VV001 19/19 Q1010
Conditions at: SBFI (FOZ DO IGUACU AR, BR) observed 0500 UTC 19 March 2019
Temperature: 19.0°C (66°F)
Dewpoint: 19.0°C (66°F) [RH = 100%]
Pressure (altimeter): 29.82 inches Hg (1010.0 mb)
Winds: from the NE (40 degrees) at 1 MPH (1 knots; 0.5 m/s)
Visibility: 0.16 miles (0.26 km)
Ceiling: indefinite ceiling with vertical visibility of 100 feet AGL
Clouds: obscured sky
Weather: FG  (fog)

METAR text: SBFI 190400Z 00000KT 0300 R32/0500 R14/1000 FG VV001 19/19 Q1010
Conditions at: SBFI (FOZ DO IGUACU AR, BR) observed 0400 UTC 19 March 2019
Temperature: 19.0°C (66°F)
Dewpoint: 19.0°C (66°F) [RH = 100%]
Pressure (altimeter): 29.82 inches Hg (1010.0 mb)
Winds: calm
Visibility: 0.19 miles (0.31 km)
Ceiling: indefinite ceiling with vertical visibility of 100 feet AGL
Clouds: obscured sky
Weather: FG  (fog)

METAR text: SBFI 190300Z 00000KT 5000 0800SW R32/0800 R14/1500 BCFG SCT003 20/20 Q1011
Conditions at: SBFI (FOZ DO IGUACU AR, BR) observed 0300 UTC 19 March 2019
Temperature: 20.0°C (68°F)
Dewpoint: 20.0°C (68°F) [RH = 100%]
Pressure (altimeter): 29.85 inches Hg (1011.0 mb)
Winds: calm
Visibility: 3 miles ( 5 km)
Ceiling: at least 12,000 feet AGL
Clouds: scattered clouds at 300 feet AGL
Weather: BCFG  (patches of fog)

METAR text: SBFI 190200Z 10001KT 9999 SCT010 21/21 Q1011
Conditions at: SBFI (FOZ DO IGUACU AR, BR) observed 0200 UTC 19 March 2019
Temperature: 21.0°C (70°F)
Dewpoint: 21.0°C (70°F) [RH = 100%]
Pressure (altimeter): 29.85 inches Hg (1011.0 mb)
Winds: from the E (100 degrees) at 1 MPH (1 knots; 0.5 m/s)
Visibility: 6 or more miles (10+ km)
Ceiling: at least 12,000 feet AGL
Clouds: scattered clouds at 1000 feet AGL
Weather: no significant weather observed at this time

METAR text: SBFI 190100Z 00000KT 9999 SCT010 21/20 Q1010
Conditions at: SBFI (FOZ DO IGUACU AR, BR) observed 0100 UTC 19 March 2019
Temperature: 21.0°C (70°F)
Dewpoint: 20.0°C (68°F) [RH = 94%]
Pressure (altimeter): 29.82 inches Hg (1010.0 mb)
Winds: calm
Visibility: 6 or more miles (10+ km)
Ceiling: at least 12,000 feet AGL
Clouds: scattered clouds at 1000 feet AGL
Weather: no significant weather observed at this time

METAR text: SBFI 190000Z 00000KT 9999 SCT010 SCT070 21/21 Q1010
Conditions at: SBFI (FOZ DO IGUACU AR, BR) observed 0000 UTC 19 March 2019
Temperature: 21.0°C (70°F)
Dewpoint: 21.0°C (70°F) [RH = 100%]
Pressure (altimeter): 29.82 inches Hg (1010.0 mb)
Winds: calm
Visibility: 6 or more miles (10+ km)
Ceiling: at least 12,000 feet AGL
Clouds: scattered clouds at 1000 feet AGL
scattered clouds at 7000 feet AGL
Weather: no significant weather observed at this time

METAR text: SBFI 182300Z 22002KT 9999 SCT010 BKN015 BKN070 22/22 Q1010
Conditions at: SBFI (FOZ DO IGUACU AR, BR) observed 2300 UTC 18 March 2019
Temperature: 22.0°C (72°F)
Dewpoint: 22.0°C (72°F) [RH = 100%]
Pressure (altimeter): 29.82 inches Hg (1010.0 mb)
Winds: from the SW (220 degrees) at 2 MPH (2 knots; 1.0 m/s)
Visibility: 6 or more miles (10+ km)
Ceiling: 1500 feet AGL
Clouds: scattered clouds at 1000 feet AGL
broken clouds at 1500 feet AGL
broken clouds at 7000 feet AGL
Weather: no significant weather observed at this time

METAR text: SBFI 182200Z 20003KT 9999 VCSH SCT010 BKN015 FEW025TCU 23/22 Q1 009
Conditions at: SBFI (FOZ DO IGUACU AR, BR) observed 2200 UTC 18 March 2019
Temperature: 23.0°C (73°F)
Dewpoint: 22.0°C (72°F) [RH = 94%]
Pressure (altimeter): missing
Winds: from the SSW (200 degrees) at 3 MPH (3 knots; 1.5 m/s)
Visibility: 6 or more miles (10+ km)
Ceiling: 1500 feet AGL
Clouds: scattered clouds at 1000 feet AGL
broken clouds at 1500 feet AGL
few clouds at 2500 feet AGL
Weather: VCSH  (showers in vicinity)

METAR text: SBFI 182100Z 21003KT 9999 BKN010 BKN015 FEW025TCU 24/23 Q1009
Conditions at: SBFI (FOZ DO IGUACU AR, BR) observed 2100 UTC 18 March 2019
Temperature: 24.0°C (75°F)
Dewpoint: 23.0°C (73°F) [RH = 94%]
Pressure (altimeter): 29.79 inches Hg (1009.0 mb)
Winds: from the SSW (210 degrees) at 3 MPH (3 knots; 1.5 m/s)
Visibility: 6 or more miles (10+ km)
Ceiling: 1000 feet AGL
Clouds: broken clouds at 1000 feet AGL
broken clouds at 1500 feet AGL
few clouds at 2500 feet AGL
Weather: no significant weather observed at this time

METAR text: SBFI 182000Z 22004KT 9999 BKN009 BKN015 24/23 Q1009
Conditions at: SBFI (FOZ DO IGUACU AR, BR) observed 2000 UTC 18 March 2019
Temperature: 24.0°C (75°F)
Dewpoint: 23.0°C (73°F) [RH = 94%]
Pressure (altimeter): 29.79 inches Hg (1009.0 mb)
Winds: from the SW (220 degrees) at 5 MPH (4 knots; 2.1 m/s)
Visibility: 6 or more miles (10+ km)
Ceiling: 900 feet AGL
Clouds: broken clouds at 900 feet AGL
broken clouds at 1500 feet AGL
Weather: no significant weather observed at this time

METAR text: SBFI 181900Z 25003KT 7000 -RA BKN005 OVC010 24/23 Q1009
Conditions at: SBFI (FOZ DO IGUACU AR, BR) observed 1900 UTC 18 March 2019
Temperature: 24.0°C (75°F)
Dewpoint: 23.0°C (73°F) [RH = 94%]
Pressure (altimeter): 29.79 inches Hg (1009.0 mb)
Winds: from the WSW (250 degrees) at 3 MPH (3 knots; 1.5 m/s)
Visibility: 4 miles ( 7 km)
Ceiling: 500 feet AGL
Clouds: broken clouds at 500 feet AGL
overcast cloud deck at 1000 feet AGL
Weather: -RA  (light rain)

METAR text: SBFI 181800Z 25005KT 5000 -RA BKN005 OVC010 23/23 Q1009 RETS
Conditions at: SBFI (FOZ DO IGUACU AR, BR) observed 1800 UTC 18 March 2019
Temperature: 23.0°C (73°F)
Dewpoint: 23.0°C (73°F) [RH = 100%]
Pressure (altimeter): 29.79 inches Hg (1009.0 mb)
Winds: from the WSW (250 degrees) at 6 MPH (5 knots; 2.6 m/s)
Visibility: 3 miles ( 5 km)
Ceiling: 500 feet AGL
Clouds: broken clouds at 500 feet AGL
overcast cloud deck at 1000 feet AGL
Weather: -RA  (light rain)

METAR text: SBFI 181718Z 25007KT 1500 R14/1600 R32/1600 +TSRA VV005 //////C B 22/22 Q1009
Conditions at: SBFI (FOZ DO IGUACU AR, BR) observed 1718 UTC 18 March 2019
Temperature: 22.0°C (72°F)
Dewpoint: 22.0°C (72°F) [RH = 100%]
Pressure (altimeter): 29.79 inches Hg (1009.0 mb)
Winds: from the WSW (250 degrees) at 8 MPH (7 knots; 3.6 m/s)
Visibility: 0.93 miles (1.50 km)
Ceiling: indefinite ceiling with vertical visibility of 500 feet AGL
Clouds: obscured sky
Weather: +TSRA  (heavy rain associated with thunderstorm(s))

METAR text: SBFI 181707Z 26009KT 3000 RA BKN006 OVC010 23/22 Q1010
Conditions at: SBFI (FOZ DO IGUACU AR, BR) observed 1707 UTC 18 March 2019
Temperature: 23.0°C (73°F)
Dewpoint: 22.0°C (72°F) [RH = 94%]
Pressure (altimeter): 29.82 inches Hg (1010.0 mb)
Winds: from the W (260 degrees) at 10 MPH (9 knots; 4.6 m/s)
Visibility: 1.86 miles (2.99 km)
Ceiling: 600 feet AGL
Clouds: broken clouds at 600 feet AGL
overcast cloud deck at 1000 feet AGL
Weather: RA  (moderate rain)

METAR text: SBFI 181700Z 28006G16KT 6000 RA SCT007 BKN010 OVC017 24/23 Q100 9
Conditions at: SBFI (FOZ DO IGUACU AR, BR) observed 1700 UTC 18 March 2019
Temperature: 24.0°C (75°F)
Dewpoint: 23.0°C (73°F) [RH = 94%]
Pressure (altimeter): missing
Winds: from the W (280 degrees) at 7 MPH (6 knots; 3.1 m/s)
gusting to 18 MPH (16 knots; 8.2 m/s)
Visibility: 4 miles ( 6 km)
Ceiling: 1000 feet AGL
Clouds: scattered clouds at 700 feet AGL
broken clouds at 1000 feet AGL
overcast cloud deck at 1700 feet AGL
Weather: RA  (moderate rain)

METAR text: SBFI 181625Z 34008KT 9000 RA BKN020 SCT035 BKN070 25/23 Q1009
Conditions at: SBFI (FOZ DO IGUACU AR, BR) observed 1625 UTC 18 March 2019
Temperature: 25.0°C (77°F)
Dewpoint: 23.0°C (73°F) [RH = 89%]
Pressure (altimeter): 29.79 inches Hg (1009.0 mb)
Winds: from the NNW (340 degrees) at 9 MPH (8 knots; 4.1 m/s)
Visibility: 6 miles ( 9 km)
Ceiling: 2000 feet AGL
Clouds: broken clouds at 2000 feet AGL
scattered clouds at 3500 feet AGL
broken clouds at 7000 feet AGL
Weather: RA  (moderate rain)

METAR text: SBFI 181600Z 34008KT 9999 BKN020 BKN040 26/23 Q1009
Conditions at: SBFI (FOZ DO IGUACU AR, BR) observed 1600 UTC 18 March 2019
Temperature: 26.0°C (79°F)
Dewpoint: 23.0°C (73°F) [RH = 84%]
Pressure (altimeter): 29.79 inches Hg (1009.0 mb)
Winds: from the NNW (340 degrees) at 9 MPH (8 knots; 4.1 m/s)
Visibility: 6 or more miles (10+ km)
Ceiling: 2000 feet AGL
Clouds: broken clouds at 2000 feet AGL
broken clouds at 4000 feet AGL
Weather: no significant weather observed at this time

METAR text: SBFI 181500Z 36010KT 9999 SCT020 SCT035 BKN070 26/23 Q1010
Conditions at: SBFI (FOZ DO IGUACU AR, BR) observed 1500 UTC 18 March 2019
Temperature: 26.0°C (79°F)
Dewpoint: 23.0°C (73°F) [RH = 84%]
Pressure (altimeter): 29.82 inches Hg (1010.0 mb)
Winds: from the N (360 degrees) at 12 MPH (10 knots; 5.1 m/s)
Visibility: 6 or more miles (10+ km)
Ceiling: 7000 feet AGL
Clouds: scattered clouds at 2000 feet AGL
scattered clouds at 3500 feet AGL
broken clouds at 7000 feet AGL
Weather: no significant weather observed at this time

METAR text: SBFI 181428Z 01010KT 9999 SCT015 SCT030 OVC070 26/23 Q1011
Conditions at: SBFI (FOZ DO IGUACU AR, BR) observed 1428 UTC 18 March 2019
Temperature: 26.0°C (79°F)
Dewpoint: 23.0°C (73°F) [RH = 84%]
Pressure (altimeter): 29.85 inches Hg (1011.0 mb)
Winds: from the N (10 degrees) at 12 MPH (10 knots; 5.1 m/s)
Visibility: 6 or more miles (10+ km)
Ceiling: 7000 feet AGL
Clouds: scattered clouds at 1500 feet AGL
scattered clouds at 3000 feet AGL
overcast cloud deck at 7000 feet AGL
Weather: no significant weather observed at this time

METAR text: SBFI 181400Z 35007KT 9999 BKN013 OVC020 25/23 Q1012
Conditions at: SBFI (FOZ DO IGUACU AR, BR) observed 1400 UTC 18 March 2019
Temperature: 25.0°C (77°F)
Dewpoint: 23.0°C (73°F) [RH = 89%]
Pressure (altimeter): 29.88 inches Hg (1012.0 mb)
Winds: from the N (350 degrees) at 8 MPH (7 knots; 3.6 m/s)
Visibility: 6 or more miles (10+ km)
Ceiling: 1300 feet AGL
Clouds: broken clouds at 1300 feet AGL
overcast cloud deck at 2000 feet AGL
Weather: no significant weather observed at this time

METAR text: SBFI 181300Z 36008KT 9999 BKN013 OVC070 24/22 Q1011
Conditions at: SBFI (FOZ DO IGUACU AR, BR) observed 1300 UTC 18 March 2019
Temperature: 24.0°C (75°F)
Dewpoint: 22.0°C (72°F) [RH = 89%]
Pressure (altimeter): 29.85 inches Hg (1011.0 mb)
Winds: from the N (360 degrees) at 9 MPH (8 knots; 4.1 m/s)
Visibility: 6 or more miles (10+ km)
Ceiling: 1300 feet AGL
Clouds: broken clouds at 1300 feet AGL
overcast cloud deck at 7000 feet AGL
Weather: no significant weather observed at this time

METAR text: SBFI 181200Z 35008KT 9999 BKN013 OVC070 23/22 Q1010
Conditions at: SBFI (FOZ DO IGUACU AR, BR) observed 1200 UTC 18 March 2019
Temperature: 23.0°C (73°F)
Dewpoint: 22.0°C (72°F) [RH = 94%]
Pressure (altimeter): 29.82 inches Hg (1010.0 mb)
Winds: from the N (350 degrees) at 9 MPH (8 knots; 4.1 m/s)
Visibility: 6 or more miles (10+ km)
Ceiling: 1300 feet AGL
Clouds: broken clouds at 1300 feet AGL
overcast cloud deck at 7000 feet AGL
Weather: no significant weather observed at this time

METAR text: SBFI 181100Z 33007KT 9000 -RA OVC008 22/22 Q1010 RERA
Conditions at: SBFI (FOZ DO IGUACU AR, BR) observed 1100 UTC 18 March 2019
Temperature: 22.0°C (72°F)
Dewpoint: 22.0°C (72°F) [RH = 100%]
Pressure (altimeter): 29.82 inches Hg (1010.0 mb)
Winds: from the NNW (330 degrees) at 8 MPH (7 knots; 3.6 m/s)
Visibility: 6 miles ( 9 km)
Ceiling: 800 feet AGL
Clouds: overcast cloud deck at 800 feet AGL
Weather: -RA  (light rain)

METAR text: SBFI 181027Z 33006KT 2000 +RA BKN008 OVC015 22/22 Q1010
Conditions at: SBFI (FOZ DO IGUACU AR, BR) observed 1027 UTC 18 March 2019
Temperature: 22.0°C (72°F)
Dewpoint: 22.0°C (72°F) [RH = 100%]
Pressure (altimeter): 29.82 inches Hg (1010.0 mb)
Winds: from the NNW (330 degrees) at 7 MPH (6 knots; 3.1 m/s)
Visibility: 1.24 miles (2.00 km)
Ceiling: 800 feet AGL
Clouds: broken clouds at 800 feet AGL
overcast cloud deck at 1500 feet AGL
Weather: +RA  (heavy rain)

METAR text: SBFI 181000Z 25004KT 1600 R14/P2000 R32/P2000 RA BKN008 OVC020 22/22 Q1010
Conditions at: SBFI (FOZ DO IGUACU AR, BR) observed 1000 UTC 18 March 2019
Temperature: 22.0°C (72°F)
Dewpoint: 22.0°C (72°F) [RH = 100%]
Pressure (altimeter): 29.82 inches Hg (1010.0 mb)
Winds: from the WSW (250 degrees) at 5 MPH (4 knots; 2.1 m/s)
Visibility: 0.99 miles (1.59 km)
Ceiling: 800 feet AGL
Clouds: broken clouds at 800 feet AGL
overcast cloud deck at 2000 feet AGL
Weather: RA  (moderate rain)

METAR text: SBFI 180931Z 33003KT 2000 +RA OVC003 22/22 Q1009
Conditions at: SBFI (FOZ DO IGUACU AR, BR) observed 0931 UTC 18 March 2019
Temperature: 22.0°C (72°F)
Dewpoint: 22.0°C (72°F) [RH = 100%]
Pressure (altimeter): 29.79 inches Hg (1009.0 mb)
Winds: from the NNW (330 degrees) at 3 MPH (3 knots; 1.5 m/s)
Visibility: 1.24 miles (2.00 km)
Ceiling: 300 feet AGL
Clouds: overcast cloud deck at 300 feet AGL
Weather: +RA  (heavy rain)

METAR text: SBFI 180916Z 33005KT 3000 RA OVC003 22/21 Q1010
Conditions at: SBFI (FOZ DO IGUACU AR, BR) observed 0916 UTC 18 March 2019
Temperature: 22.0°C (72°F)
Dewpoint: 21.0°C (70°F) [RH = 94%]
Pressure (altimeter): 29.82 inches Hg (1010.0 mb)
Winds: from the NNW (330 degrees) at 6 MPH (5 knots; 2.6 m/s)
Visibility: 1.86 miles (2.99 km)
Ceiling: 300 feet AGL
Clouds: overcast cloud deck at 300 feet AGL
Weather: RA  (moderate rain)

METAR text: SBFI 180900Z 04005KT 9000 OVC009 22/21 Q1009 RETSRA
Conditions at: SBFI (FOZ DO IGUACU AR, BR) observed 0900 UTC 18 March 2019
Temperature: 22.0°C (72°F)
Dewpoint: 21.0°C (70°F) [RH = 94%]
Pressure (altimeter): 29.79 inches Hg (1009.0 mb)
Winds: from the NE (40 degrees) at 6 MPH (5 knots; 2.6 m/s)
Visibility: 6 miles ( 9 km)
Ceiling: 900 feet AGL
Clouds: overcast cloud deck at 900 feet AGL
Weather: no significant weather observed at this time

METAR text: SBFI 180820Z 11003KT 3000 TSRA BKN005 OVC012 //////CB 21/21 Q1009
Conditions at: SBFI (FOZ DO IGUACU AR, BR) observed 0820 UTC 18 March 2019
Temperature: 21.0°C (70°F)
Dewpoint: 21.0°C (70°F) [RH = 100%]
Pressure (altimeter): 29.79 inches Hg (1009.0 mb)
Winds: from the ESE (110 degrees) at 3 MPH (3 knots; 1.5 m/s)
Visibility: 1.86 miles (2.99 km)
Ceiling: 500 feet AGL
Clouds: broken clouds at 500 feet AGL
overcast cloud deck at 1200 feet AGL
Weather: TSRA  (rain associated with thunderstorm(s))

METAR text: SBFI 180800Z 09003KT 6000 -RA BKN013 OVC020 22/21 Q1009 RERA
Conditions at: SBFI (FOZ DO IGUACU AR, BR) observed 0800 UTC 18 March 2019
Temperature: 22.0°C (72°F)
Dewpoint: 21.0°C (70°F) [RH = 94%]
Pressure (altimeter): 29.79 inches Hg (1009.0 mb)
Winds: from the E (90 degrees) at 3 MPH (3 knots; 1.5 m/s)
Visibility: 4 miles ( 6 km)
Ceiling: 1300 feet AGL
Clouds: broken clouds at 1300 feet AGL
overcast cloud deck at 2000 feet AGL
Weather: -RA  (light rain)

METAR text: SBFI 180724Z 05004KT 9000 OVC013 21/21 Q1009 RERA
Conditions at: SBFI (FOZ DO IGUACU AR, BR) observed 0724 UTC 18 March 2019
Temperature: 21.0°C (70°F)
Dewpoint: 21.0°C (70°F) [RH = 100%]
Pressure (altimeter): 29.79 inches Hg (1009.0 mb)
Winds: from the NE (50 degrees) at 5 MPH (4 knots; 2.1 m/s)
Visibility: 6 miles ( 9 km)
Ceiling: 1300 feet AGL
Clouds: overcast cloud deck at 1300 feet AGL
Weather: no significant weather observed at this time

METAR text: SBFI 180710Z 04004KT 5000 RA FEW010 BKN017 OVC030 21/21 Q1009
Conditions at: SBFI (FOZ DO IGUACU AR, BR) observed 0710 UTC 18 March 2019
Temperature: 21.0°C (70°F)
Dewpoint: 21.0°C (70°F) [RH = 100%]
Pressure (altimeter): 29.79 inches Hg (1009.0 mb)
Winds: from the NE (40 degrees) at 5 MPH (4 knots; 2.1 m/s)
Visibility: 3 miles ( 5 km)
Ceiling: 1700 feet AGL
Clouds: few clouds at 1000 feet AGL
broken clouds at 1700 feet AGL
overcast cloud deck at 3000 feet AGL
Weather: RA  (moderate rain)

METAR text: SBFI 180700Z 04006KT 9000 SCT009 OVC023 21/21 Q1009
Conditions at: SBFI (FOZ DO IGUACU AR, BR) observed 0700 UTC 18 March 2019
Temperature: 21.0°C (70°F)
Dewpoint: 21.0°C (70°F) [RH = 100%]
Pressure (altimeter): 29.79 inches Hg (1009.0 mb)
Winds: from the NE (40 degrees) at 7 MPH (6 knots; 3.1 m/s)
Visibility: 6 miles ( 9 km)
Ceiling: 2300 feet AGL
Clouds: scattered clouds at 900 feet AGL
overcast cloud deck at 2300 feet AGL
Weather: no significant weather observed at this time

METAR text: SBFI 180616Z 03005KT 6000 SCT004 BKN040 21/21 Q1010 RERA
Conditions at: SBFI (FOZ DO IGUACU AR, BR) observed 0616 UTC 18 March 2019
Temperature: 21.0°C (70°F)
Dewpoint: 21.0°C (70°F) [RH = 100%]
Pressure (altimeter): 29.82 inches Hg (1010.0 mb)
Winds: from the NNE (30 degrees) at 6 MPH (5 knots; 2.6 m/s)
Visibility: 4 miles ( 6 km)
Ceiling: 4000 feet AGL
Clouds: scattered clouds at 400 feet AGL
broken clouds at 4000 feet AGL
Weather: no significant weather observed at this time

METAR text: SBFI 180600Z 05009KT 5000 +RA OVC004 21/21 Q1009
Conditions at: SBFI (FOZ DO IGUACU AR, BR) observed 0600 UTC 18 March 2019
Temperature: 21.0°C (70°F)
Dewpoint: 21.0°C (70°F) [RH = 100%]
Pressure (altimeter): 29.79 inches Hg (1009.0 mb)
Winds: from the NE (50 degrees) at 10 MPH (9 knots; 4.6 m/s)
Visibility: 3 miles ( 5 km)
Ceiling: 400 feet AGL
Clouds: overcast cloud deck at 400 feet AGL
Weather: +RA  (heavy rain)

METAR text: SBFI 180500Z 08005KT 9000 RA SCT035 OVC070 21/21 Q1009 RETS
Conditions at: SBFI (FOZ DO IGUACU AR, BR) observed 0500 UTC 18 March 2019
Temperature: 21.0°C (70°F)
Dewpoint: 21.0°C (70°F) [RH = 100%]
Pressure (altimeter): 29.79 inches Hg (1009.0 mb)
Winds: from the E (80 degrees) at 6 MPH (5 knots; 2.6 m/s)
Visibility: 6 miles ( 9 km)
Ceiling: 7000 feet AGL
Clouds: scattered clouds at 3500 feet AGL
overcast cloud deck at 7000 feet AGL
Weather: RA  (moderate rain)

METAR text: SBFI 180400Z 09009KT 8000 RA VCTS FEW035CB SCT040 OVC080 21/21 Q1010
Conditions at: SBFI (FOZ DO IGUACU AR, BR) observed 0400 UTC 18 March 2019
Temperature: 21.0°C (70°F)
Dewpoint: 21.0°C (70°F) [RH = 100%]
Pressure (altimeter): 29.82 inches Hg (1010.0 mb)
Winds: from the E (90 degrees) at 10 MPH (9 knots; 4.6 m/s)
Visibility: 5 miles ( 8 km)
Ceiling: 8000 feet AGL
Clouds: few clouds at 3500 feet AGL
scattered clouds at 4000 feet AGL
overcast cloud deck at 8000 feet AGL
Weather: RA VCTS  (moderate rain, thunderstorm in vicinity)

METAR text: SBFI 180300Z 13005KT 9999 RA BKN030 OVC040 21/21 Q1011
Conditions at: SBFI (FOZ DO IGUACU AR, BR) observed 0300 UTC 18 March 2019
Temperature: 21.0°C (70°F)
Dewpoint: 21.0°C (70°F) [RH = 100%]
Pressure (altimeter): 29.85 inches Hg (1011.0 mb)
Winds: from the SE (130 degrees) at 6 MPH (5 knots; 2.6 m/s)
Visibility: 6 or more miles (10+ km)
Ceiling: 3000 feet AGL
Clouds: broken clouds at 3000 feet AGL
overcast cloud deck at 4000 feet AGL
Weather: RA  (moderate rain)

METAR text: SBFI 180200Z 16005KT 9999 -RA OVC030 21/21 Q1011
Conditions at: SBFI (FOZ DO IGUACU AR, BR) observed 0200 UTC 18 March 2019
Temperature: 21.0°C (70°F)
Dewpoint: 21.0°C (70°F) [RH = 100%]
Pressure (altimeter): 29.85 inches Hg (1011.0 mb)
Winds: from the SSE (160 degrees) at 6 MPH (5 knots; 2.6 m/s)
Visibility: 6 or more miles (10+ km)
Ceiling: 3000 feet AGL
Clouds: overcast cloud deck at 3000 feet AGL
Weather: -RA  (light rain)

METAR text: SBFI 180100Z 12006KT 9999 BKN035 OVC080 22/21 Q1011
Conditions at: SBFI (FOZ DO IGUACU AR, BR) observed 0100 UTC 18 March 2019
Temperature: 22.0°C (72°F)
Dewpoint: 21.0°C (70°F) [RH = 94%]
Pressure (altimeter): 29.85 inches Hg (1011.0 mb)
Winds: from the ESE (120 degrees) at 7 MPH (6 knots; 3.1 m/s)
Visibility: 6 or more miles (10+ km)
Ceiling: 3500 feet AGL
Clouds: broken clouds at 3500 feet AGL
overcast cloud deck at 8000 feet AGL
Weather: no significant weather observed at this time

METAR text: SBFI 180000Z 12006KT 9999 SCT045 BKN070 22/21 Q1011
Conditions at: SBFI (FOZ DO IGUACU AR, BR) observed 0000 UTC 18 March 2019
Temperature: 22.0°C (72°F)
Dewpoint: 21.0°C (70°F) [RH = 94%]
Pressure (altimeter): 29.85 inches Hg (1011.0 mb)
Winds: from the ESE (120 degrees) at 7 MPH (6 knots; 3.1 m/s)
Visibility: 6 or more miles (10+ km)
Ceiling: 7000 feet AGL
Clouds: scattered clouds at 4500 feet AGL
broken clouds at 7000 feet AGL
Weather: no significant weather observed at this time

METAR text: SBFI 172300Z 12007KT 9999 FEW040 OVC070 22/21 Q1010
Conditions at: SBFI (FOZ DO IGUACU AR, BR) observed 2300 UTC 17 March 2019
Temperature: 22.0°C (72°F)
Dewpoint: 21.0°C (70°F) [RH = 94%]
Pressure (altimeter): 29.82 inches Hg (1010.0 mb)
Winds: from the ESE (120 degrees) at 8 MPH (7 knots; 3.6 m/s)
Visibility: 6 or more miles (10+ km)
Ceiling: 7000 feet AGL
Clouds: few clouds at 4000 feet AGL
overcast cloud deck at 7000 feet AGL
Weather: no significant weather observed at this time

METAR text: SBFI 172200Z 12007KT 9999 FEW030 OVC070 22/21 Q1010
Conditions at: SBFI (FOZ DO IGUACU AR, BR) observed 2200 UTC 17 March 2019
Temperature: 22.0°C (72°F)
Dewpoint: 21.0°C (70°F) [RH = 94%]
Pressure (altimeter): 29.82 inches Hg (1010.0 mb)
Winds: from the ESE (120 degrees) at 8 MPH (7 knots; 3.6 m/s)
Visibility: 6 or more miles (10+ km)
Ceiling: 7000 feet AGL
Clouds: few clouds at 3000 feet AGL
overcast cloud deck at 7000 feet AGL
Weather: no significant weather observed at this time

METAR text: SBFI 172100Z 11006KT 9999 FEW009 SCT030 OVC080 23/21 Q1010
Conditions at: SBFI (FOZ DO IGUACU AR, BR) observed 2100 UTC 17 March 2019
Temperature: 23.0°C (73°F)
Dewpoint: 21.0°C (70°F) [RH = 89%]
Pressure (altimeter): 29.82 inches Hg (1010.0 mb)
Winds: from the ESE (110 degrees) at 7 MPH (6 knots; 3.1 m/s)
Visibility: 6 or more miles (10+ km)
Ceiling: 8000 feet AGL
Clouds: few clouds at 900 feet AGL
scattered clouds at 3000 feet AGL
overcast cloud deck at 8000 feet AGL
Weather: no significant weather observed at this time

METAR text: SBFI 172000Z 09006KT 9999 FEW009 OVC100 23/21 Q1010
Conditions at: SBFI (FOZ DO IGUACU AR, BR) observed 2000 UTC 17 March 2019
Temperature: 23.0°C (73°F)
Dewpoint: 21.0°C (70°F) [RH = 89%]
Pressure (altimeter): 29.82 inches Hg (1010.0 mb)
Winds: from the E (90 degrees) at 7 MPH (6 knots; 3.1 m/s)
Visibility: 6 or more miles (10+ km)
Ceiling: 10000 feet AGL
Clouds: few clouds at 900 feet AGL
overcast cloud deck at 10000 feet AGL
Weather: no significant weather observed at this time

METAR text: SBFI 171900Z 11006KT 9999 FEW010 OVC100 23/21 Q1010
Conditions at: SBFI (FOZ DO IGUACU AR, BR) observed 1900 UTC 17 March 2019
Temperature: 23.0°C (73°F)
Dewpoint: 21.0°C (70°F) [RH = 89%]
Pressure (altimeter): 29.82 inches Hg (1010.0 mb)
Winds: from the ESE (110 degrees) at 7 MPH (6 knots; 3.1 m/s)
Visibility: 6 or more miles (10+ km)
Ceiling: 10000 feet AGL
Clouds: few clouds at 1000 feet AGL
overcast cloud deck at 10000 feet AGL
Weather: no significant weather observed at this time

METAR text: SBFI 171800Z 20002KT 9999 FEW025 OVC070 22/20 Q1011
Conditions at: SBFI (FOZ DO IGUACU AR, BR) observed 1800 UTC 17 March 2019
Temperature: 22.0°C (72°F)
Dewpoint: 20.0°C (68°F) [RH = 88%]
Pressure (altimeter): 29.85 inches Hg (1011.0 mb)
Winds: from the SSW (200 degrees) at 2 MPH (2 knots; 1.0 m/s)
Visibility: 6 or more miles (10+ km)
Ceiling: 7000 feet AGL
Clouds: few clouds at 2500 feet AGL
overcast cloud deck at 7000 feet AGL
Weather: no significant weather observed at this time

Forecast for: SBFI (FOZ DO IGUACU AR, BR)
Text: TAF SBFI 190200Z 1906/2006 20006KT 9999 SCT010 TN21/1909Z TX28/1917Z
Forecast period: 0600 to 1200 UTC 19 March 2019
Forecast type: FROM: standard forecast or significant change
Winds: from the SSW (200 degrees) at 7 MPH (6 knots; 3.1 m/s)
Visibility: 6 or more miles 10+ km)
Ceiling: at least 12,000 feet AGL
Clouds: scattered clouds at 1000 feet AGL
Weather: no significant weather forecast for this period
Text: PROB40 1906/1911 2000 BCFG BR BKN005
Forecast period: 0600 to 1100 UTC 19 March 2019
Forecast type: PROBABLE: 40 percent likelihood of the following during this time
Visibility: 1.24 miles (2.00 km)
Ceiling: 500 feet AGL
Clouds: broken clouds at 500 feet AGL
Weather: BCFG BR  (patches of fog, mist)
Text: BECMG 1912/1914 16007KT SCT020
Forecast period: 1200 UTC 19 March 2019 to 0600 UTC 20 March 2019
Forecast type: BECOMING: Conditions expected to become as follows by 1400 UTC 19 March 2019
Winds: from the SSE (160 degrees) at 8 MPH (7 knots; 3.6 m/s)
Visibility: 6 or more miles 10+ km)
Ceiling: at least 12,000 feet AGL
Clouds: scattered clouds at 2000 feet AGL
Weather: no significant weather forecast for this period
Text: BECMG 1 916/1918 12004KT SCT030 RMK PER
Forecast period: 0600 UTC 19 March 2019 to 0600 UTC 20 March 2019
Forecast type: FROM: standard forecast or significant change
Visibility: missing
Ceiling: unknown
Clouds: missing
Weather: no significant weather forecast for this period